Nelson, Virginia
Current Conditions -  °F | °C
As of 12:55 PM on Friday 31 Oct 2014 (Local Time) from KW63 Reporting Station
Broken Clouds Broken Clouds  
Wind Chill: 55°   Ceiling: 3900
Heat Index: 55°   Visibility: 10mi
Dew Point: 41°   Wind: 5mph
Humidity: 58%   Direction: 50°NE
Pressure: 29.9"   Gusts: NA
Location:  36.56°N, 78.7°W
Report Text: KW63 311655Z AUTO 05004KT 10SM BKN039 13/05 A2990 RMK AO1
Loading
Personal Weather Stations






























Interactive Weather Map
Tropical Storm Tracking
New forecast layout! Learn more

10-Day Weather Forecast

Advertisements
Track Severe Weather on mobile